Time;durP1;ratioP1;P1;durP2;ratioP2;P2;SDS_P1;SDS_P2;PMS_P1;PMS_P2;Temp;Humidity;BMP_temperature;BMP_pressure;BME280_temperature;BME280_humidity;BME280_pressure;Samples;Min_cycle;Max_cycle;Signal;HPM_P1;HPM_P2
2022/04/10 00:01:14;;;;;;;9.77;2.60;;;3.70;99.90;;;;;;5033325;28;20045;-62
2022/04/10 00:03:40;;;;;;;9.75;2.72;;;3.60;99.90;;;;;;5033127;28;20504;-62
2022/04/10 00:06:05;;;;;;;12.00;2.67;;;3.50;99.90;;;;;;5033290;28;20053;-62
2022/04/10 00:08:31;;;;;;;7.95;2.88;;;3.50;99.90;;;;;;5015471;28;20041;-62
2022/04/10 00:10:56;;;;;;;7.85;1.95;;;3.40;99.90;;;;;;5033397;28;20411;-62
2022/04/10 00:13:22;;;;;;;11.43;3.58;;;3.50;99.90;;;;;;5033266;28;20120;-62
2022/04/10 00:15:48;;;;;;;7.55;2.00;;;3.50;99.90;;;;;;5033233;28;20073;-62
2022/04/10 00:18:13;;;;;;;12.25;4.22;;;3.40;99.90;;;;;;5015435;28;20045;-62
2022/04/10 00:20:39;;;;;;;11.50;2.47;;;3.40;99.90;;;;;;5015404;28;20069;-62
2022/04/10 00:23:05;;;;;;;13.18;3.08;;;3.40;99.90;;;;;;5032876;28;20038;-63
2022/04/10 00:25:31;;;;;;;12.13;3.08;;;3.20;99.90;;;;;;5015384;28;20041;-63
2022/04/10 00:27:57;;;;;;;11.85;2.35;;;3.00;99.90;;;;;;5015542;28;20178;-62
2022/04/10 00:30:23;;;;;;;13.27;2.35;;;3.10;99.90;;;;;;5033099;28;20037;-63
2022/04/10 00:32:48;;;;;;;11.07;2.42;;;3.20;99.90;;;;;;5033202;28;20111;-63
2022/04/10 00:35:14;;;;;;;10.73;2.63;;;3.00;99.90;;;;;;5032972;28;20033;-63
2022/04/10 00:37:40;;;;;;;7.53;2.45;;;3.10;99.90;;;;;;5033941;28;20513;-62
2022/04/10 00:40:07;;;;;;;10.85;2.50;;;3.10;99.90;;;;;;5019206;28;20052;-63
2022/04/10 00:42:38;;;;;;;11.43;3.35;;;3.20;99.90;;;;;;5019376;28;20045;-62
2022/04/10 00:45:08;;;;;;;12.80;2.72;;;3.20;99.90;;;;;;5019193;28;20538;-62
2022/04/10 00:47:35;;;;;;;13.40;2.50;;;3.20;99.90;;;;;;5036937;28;20073;-62
2022/04/10 00:50:06;;;;;;;10.07;2.92;;;3.40;99.90;;;;;;5019040;28;20053;-62
2022/04/10 00:52:32;;;;;;;7.93;2.55;;;3.20;99.90;;;;;;5036718;28;20116;-62
2022/04/10 00:54:58;;;;;;;13.32;2.97;;;3.20;99.90;;;;;;5036885;28;20410;-62
2022/04/10 00:57:24;;;;;;;10.65;2.45;;;3.10;99.90;;;;;;5036845;28;20124;-62
2022/04/10 00:59:51;;;;;;;12.23;3.80;;;;;;;;;;5036797;28;20044;-62
2022/04/10 01:02:16;;;;;;;9.65;2.42;;;3.10;99.90;;;;;;5036446;28;20089;-63
2022/04/10 01:04:43;;;;;;;9.02;2.38;;;3.00;99.90;;;;;;5036872;28;20446;-62
2022/04/10 01:07:12;;;;;;;9.65;2.53;;;3.00;99.90;;;;;;5036306;28;20050;-62
2022/04/10 01:09:39;;;;;;;9.55;2.60;;;2.90;99.90;;;;;;5036657;28;20094;-62
2022/04/10 01:12:06;;;;;;;20.48;4.18;;;2.90;99.90;;;;;;5036404;28;20390;-62
2022/04/10 01:14:31;;;;;;;13.23;2.58;;;2.90;99.90;;;;;;5018844;28;20037;-62
2022/04/10 01:16:58;;;;;;;7.57;2.88;;;2.90;99.90;;;;;;5036406;28;20056;-61
2022/04/10 01:19:23;;;;;;;16.17;2.70;;;2.90;99.90;;;;;;5018489;28;20052;-61
2022/04/10 01:21:51;;;;;;;9.50;2.30;;;2.80;99.90;;;;;;5036481;28;20064;-62
2022/04/10 01:24:17;;;;;;;7.80;2.63;;;2.90;99.90;;;;;;5036541;28;20045;-62
2022/04/10 01:26:43;;;;;;;9.65;2.92;;;2.80;99.90;;;;;;5036052;28;20033;-63
2022/04/10 01:29:11;;;;;;;10.40;2.72;;;2.80;99.90;;;;;;5036139;28;20415;-63
2022/04/10 01:31:40;;;;;;;8.25;2.70;;;2.80;99.90;;;;;;5036046;28;20112;-63
2022/04/10 01:34:08;;;;;;;10.18;2.20;;;2.60;99.90;;;;;;5018698;28;20067;-63
2022/04/10 01:36:35;;;;;;;14.75;3.53;;;2.60;99.90;;;;;;5035977;28;20042;-63
2022/04/10 01:39:04;;;;;;;14.10;3.72;;;2.60;99.90;;;;;;5036194;28;20048;-63
2022/04/10 01:41:30;;;;;;;11.27;2.97;;;;;;;;;;5018082;28;20049;-63
2022/04/10 01:43:57;;;;;;;9.70;3.15;;;2.70;99.90;;;;;;5035998;28;20049;-62
2022/04/10 01:46:24;;;;;;;14.10;2.47;;;2.70;99.90;;;;;;5017962;28;20060;-63
2022/04/10 01:48:50;;;;;;;9.35;2.75;;;2.60;99.90;;;;;;5018077;28;20543;-62
2022/04/10 01:51:16;;;;;;;15.27;3.08;;;2.70;99.90;;;;;;5017871;28;20121;-62
2022/04/10 01:53:42;;;;;;;12.88;2.95;;;;;;;;;;5035845;28;20037;-62
2022/04/10 01:56:09;;;;;;;9.95;3.55;;;2.60;99.90;;;;;;5018156;28;20057;-62
2022/04/10 01:58:37;;;;;;;8.13;2.92;;;2.60;99.90;;;;;;5035692;28;20470;-62
2022/04/10 02:01:04;;;;;;;5.18;2.42;;;2.70;99.90;;;;;;5035439;28;20048;-62
2022/04/10 02:03:29;;;;;;;11.63;3.72;;;2.50;99.90;;;;;;5035228;28;20049;-62
2022/04/10 02:05:55;;;;;;;18.48;2.50;;;2.60;99.90;;;;;;5017598;28;20462;-62
2022/04/10 02:08:21;;;;;;;7.53;2.40;;;2.50;99.90;;;;;;5035396;28;20056;-62
2022/04/10 02:10:47;;;;;;;8.73;2.70;;;;;;;;;;5035423;28;20091;-63
2022/04/10 02:13:13;;;;;;;16.25;3.20;;;2.40;99.90;;;;;;5017851;28;20045;-62
2022/04/10 02:15:39;;;;;;;9.43;2.47;;;2.30;99.90;;;;;;5035244;28;20048;-62
2022/04/10 02:18:05;;;;;;;9.13;2.40;;;2.30;99.90;;;;;;5035134;28;20034;-62
2022/04/10 02:20:31;;;;;;;11.77;2.88;;;2.50;99.90;;;;;;5017370;28;20052;-62
2022/04/10 02:22:57;;;;;;;12.05;3.45;;;2.40;99.90;;;;;;5035263;28;20037;-62
2022/04/10 02:25:22;;;;;;;10.95;3.25;;;2.40;99.90;;;;;;5035005;28;20095;-62
2022/04/10 02:27:48;;;;;;;8.43;2.53;;;2.40;99.90;;;;;;5017423;28;20040;-62
2022/04/10 02:30:14;;;;;;;13.77;2.53;;;2.50;99.90;;;;;;5035022;28;20453;-62
2022/04/10 02:32:40;;;;;;;7.60;2.38;;;;;;;;;;5017402;28;20051;-62
2022/04/10 02:35:07;;;;;;;14.15;2.33;;;2.40;99.90;;;;;;5034855;28;20049;-62
2022/04/10 02:37:33;;;;;;;15.23;2.80;;;2.50;99.90;;;;;;5017254;28;20511;-62
2022/04/10 02:39:59;;;;;;;10.25;2.65;;;2.50;99.90;;;;;;5034955;28;20045;-62
2022/04/10 02:42:24;;;;;;;8.35;2.58;;;2.50;99.90;;;;;;5017008;28;20049;-62
2022/04/10 02:44:50;;;;;;;10.00;2.30;;;2.50;99.90;;;;;;5034669;28;20051;-62
2022/04/10 02:47:15;;;;;;;12.20;3.17;;;2.50;99.90;;;;;;5034560;28;20046;-63
2022/04/10 02:49:41;;;;;;;7.63;2.35;;;2.50;99.90;;;;;;5034767;28;20120;-62
2022/04/10 02:52:07;;;;;;;11.38;2.35;;;2.50;99.90;;;;;;5034828;28;20030;-62
2022/04/10 02:54:33;;;;;;;7.70;2.08;;;2.30;99.90;;;;;;5034504;28;20549;-63
2022/04/10 02:56:58;;;;;;;9.43;2.25;;;2.50;99.90;;;;;;5016754;28;20051;-63
2022/04/10 02:59:24;;;;;;;11.45;2.03;;;2.40;99.90;;;;;;5034447;28;20037;-63
2022/04/10 03:01:50;;;;;;;15.00;2.75;;;2.40;99.90;;;;;;5033705;28;20061;-63
2022/04/10 03:04:17;;;;;;;12.65;3.33;;;;;;;;;;5034570;28;20084;-62
2022/04/10 03:06:42;;;;;;;5.93;2.80;;;2.50;99.90;;;;;;5016594;28;20142;-62
2022/04/10 03:09:08;;;;;;;7.50;2.50;;;2.60;99.90;;;;;;5034175;28;20080;-62
2022/04/10 03:11:34;;;;;;;7.57;2.83;;;2.40;99.90;;;;;;5034270;28;20041;-62
2022/04/10 03:14:00;;;;;;;15.07;2.63;;;2.50;99.90;;;;;;5034132;28;20535;-62
2022/04/10 03:16:26;;;;;;;12.13;2.97;;;2.60;99.90;;;;;;5034090;28;20033;-62
2022/04/10 03:18:51;;;;;;;11.13;2.30;;;2.60;99.90;;;;;;5034032;28;20041;-62
2022/04/10 03:21:18;;;;;;;10.30;2.30;;;2.70;99.90;;;;;;5034176;28;20221;-61
2022/04/10 03:23:44;;;;;;;6.53;1.85;;;2.70;99.90;;;;;;5016315;28;20129;-62
2022/04/10 03:26:09;;;;;;;6.93;2.40;;;2.90;99.90;;;;;;5033801;28;20132;-62
2022/04/10 03:28:35;;;;;;;12.57;3.08;;;3.20;99.90;;;;;;5033866;28;20116;-62
2022/04/10 03:31:01;;;;;;;6.40;1.95;;;3.20;99.90;;;;;;5034064;28;20040;-62
2022/04/10 03:33:26;;;;;;;5.43;1.90;;;3.10;99.90;;;;;;5033709;28;20511;-62
2022/04/10 03:35:55;;;;;;;9.57;1.77;;;3.20;99.90;;;;;;5033970;28;20091;-62
2022/04/10 03:38:22;;;;;;;5.85;1.45;;;3.20;99.90;;;;;;5033914;28;20033;-63
2022/04/10 03:40:47;;;;;;;4.90;1.60;;;3.20;99.90;;;;;;5033747;28;20034;-62
2022/04/10 03:43:13;;;;;;;4.57;1.60;;;3.20;99.90;;;;;;5033555;28;20029;-62
2022/04/10 03:45:39;;;;;;;6.75;1.73;;;;;;;;;;5033506;28;20456;-62
2022/04/10 03:48:06;;;;;;;4.97;2.00;;;3.20;99.90;;;;;;5033435;28;20120;-62
2022/04/10 03:50:33;;;;;;;5.20;2.03;;;3.20;99.90;;;;;;5033762;28;20476;-63
2022/04/10 03:52:59;;;;;;;3.97;1.70;;;;;;;;;;5015950;28;20046;-63
2022/04/10 03:55:25;;;;;;;6.43;2.03;;;3.00;99.90;;;;;;5033559;28;20041;-62
2022/04/10 03:57:50;;;;;;;4.78;1.48;;;3.10;99.90;;;;;;5033368;28;20041;-62
2022/04/10 04:00:16;;;;;;;6.45;2.08;;;3.10;99.90;;;;;;5015579;28;20049;-62
2022/04/10 04:02:42;;;;;;;3.72;1.27;;;3.10;99.90;;;;;;5032989;28;20067;-62
2022/04/10 04:05:09;;;;;;;5.75;1.90;;;3.10;99.90;;;;;;5033459;28;20041;-62
2022/04/10 04:07:35;;;;;;;4.18;1.60;;;3.10;99.90;;;;;;5033351;28;20056;-62
2022/04/10 04:10:01;;;;;;;6.30;1.58;;;3.30;99.90;;;;;;5033158;28;20037;-63
2022/04/10 04:12:26;;;;;;;7.65;1.88;;;3.00;99.90;;;;;;5032302;28;20034;-62
2022/04/10 04:14:52;;;;;;;3.42;1.33;;;3.10;99.90;;;;;;5033070;28;20095;-62
2022/04/10 04:17:17;;;;;;;8.05;2.10;;;3.00;99.90;;;;;;5033119;28;20056;-62
2022/04/10 04:19:43;;;;;;;7.20;1.50;;;3.10;99.90;;;;;;5033384;28;20052;-62
2022/04/10 04:22:10;;;;;;;4.40;1.52;;;3.00;99.90;;;;;;5033004;28;20048;-62
2022/04/10 04:24:35;;;;;;;3.75;1.48;;;3.00;99.90;;;;;;5015334;28;20057;-63
2022/04/10 04:27:01;;;;;;;5.25;1.30;;;2.90;99.90;;;;;;5015342;28;20088;-62
2022/04/10 04:29:26;;;;;;;7.28;1.60;;;3.00;99.90;;;;;;5033096;28;20077;-62
2022/04/10 04:31:52;;;;;;;6.05;1.13;;;2.80;99.90;;;;;;5032844;28;20069;-62
2022/04/10 04:34:17;;;;;;;4.85;1.25;;;2.80;99.90;;;;;;5033187;28;20077;-62
2022/04/10 04:36:43;;;;;;;7.20;2.22;;;2.70;99.90;;;;;;5032948;28;20053;-62
2022/04/10 04:39:08;;;;;;;3.72;1.40;;;2.50;99.90;;;;;;5033105;28;20038;-62
2022/04/10 04:41:34;;;;;;;4.28;1.50;;;2.70;99.90;;;;;;5032876;28;20112;-62
2022/04/10 04:43:59;;;;;;;3.97;1.67;;;2.70;99.90;;;;;;5015234;28;20404;-62
2022/04/10 04:46:25;;;;;;;5.78;2.00;;;2.70;99.90;;;;;;5032586;28;20087;-62
2022/04/10 04:48:50;;;;;;;3.25;1.20;;;2.70;99.90;;;;;;5033067;28;20044;-62
2022/04/10 04:51:16;;;;;;;7.78;2.00;;;;;;;;;;5032872;28;20518;-62
2022/04/10 04:53:42;;;;;;;4.95;1.60;;;2.70;99.90;;;;;;5032922;28;20543;-62
2022/04/10 04:56:08;;;;;;;9.45;3.05;;;2.80;99.90;;;;;;5015089;28;20049;-62
2022/04/10 04:58:34;;;;;;;8.88;1.90;;;;;;;;;;5032627;28;20041;-62
2022/04/10 05:00:59;;;;;;;4.97;1.63;;;2.90;99.90;;;;;;5032910;28;20041;-62
2022/04/10 05:03:25;;;;;;;3.60;1.50;;;3.00;99.90;;;;;;5014880;28;20053;-62
2022/04/10 05:05:51;;;;;;;7.95;1.75;;;2.90;99.90;;;;;;5015487;28;20057;-62
2022/04/10 05:08:19;;;;;;;4.30;1.42;;;3.30;99.90;;;;;;5037863;28;20045;-62
2022/04/10 05:10:45;;;;;;;3.22;1.50;;;3.10;99.90;;;;;;5036239;28;20060;-62
2022/04/10 05:13:10;;;;;;;7.53;1.70;;;3.20;99.90;;;;;;5034617;28;20075;-62
2022/04/10 05:15:36;;;;;;;4.53;2.08;;;3.30;99.90;;;;;;5026685;28;20446;-62
2022/04/10 05:18:01;;;;;;;3.53;1.67;;;3.20;99.90;;;;;;5051507;28;20529;-62
2022/04/10 05:20:27;;;;;;;6.75;1.83;;;3.30;99.90;;;;;;5034297;28;20526;-62
2022/04/10 05:22:52;;;;;;;2.83;1.40;;;3.30;99.90;;;;;;5049435;28;20045;-62
2022/04/10 05:25:18;;;;;;;5.30;1.30;;;;;;;;;;5037555;28;20053;-62
2022/04/10 05:27:44;;;;;;;3.58;2.08;;;;;;;;;;5055567;28;20033;-62
2022/04/10 05:30:11;;;;;;;6.70;1.85;;;3.50;99.90;;;;;;5037812;28;20597;-62
2022/04/10 05:32:42;;;;;;;3.10;1.73;;;3.50;99.90;;;;;;5055637;28;20037;-62
2022/04/10 05:35:08;;;;;;;3.17;1.65;;;3.70;99.90;;;;;;5038051;28;20415;-62
2022/04/10 05:37:34;;;;;;;7.07;1.77;;;3.70;99.90;;;;;;5055985;28;20046;-62
2022/04/10 05:39:59;;;;;;;5.47;1.58;;;3.90;99.90;;;;;;5037724;28;20211;-64
2022/04/10 05:42:25;;;;;;;4.38;1.90;;;3.90;99.90;;;;;;5055888;28;20098;-64
2022/04/10 05:44:51;;;;;;;1.92;1.50;;;;;;;;;;5035027;28;20163;-64
2022/04/10 05:47:17;;;;;;;4.80;1.80;;;3.80;99.90;;;;;;5018250;28;20050;-64
2022/04/10 05:49:42;;;;;;;5.63;1.70;;;3.80;99.90;;;;;;5019943;28;20037;-64
2022/04/10 05:52:08;;;;;;;5.75;1.50;;;4.10;99.90;;;;;;5017348;28;20048;-64
2022/04/10 05:54:34;;;;;;;4.50;1.63;;;;;;;;;;5035209;28;20128;-64
2022/04/10 05:56:59;;;;;;;4.00;2.38;;;4.10;99.90;;;;;;5019879;28;20041;-64
2022/04/10 05:59:25;;;;;;;3.70;1.50;;;;;;;;;;5035269;28;20041;-64
2022/04/10 06:01:53;;;;;;;5.13;1.48;;;4.40;99.90;;;;;;5017159;28;20107;-64
2022/04/10 06:04:18;;;;;;;5.47;1.92;;;4.20;99.90;;;;;;5034959;28;20061;-64
2022/04/10 06:06:44;;;;;;;6.22;2.60;;;4.50;99.90;;;;;;5034879;28;20530;-64
2022/04/10 06:09:09;;;;;;;5.97;1.58;;;4.70;99.90;;;;;;5034709;28;20117;-64
2022/04/10 06:11:35;;;;;;;5.88;2.28;;;4.90;99.90;;;;;;5035054;28;20124;-64
2022/04/10 06:14:00;;;;;;;4.22;1.60;;;5.10;99.90;;;;;;5034976;28;20116;-65
2022/04/10 06:16:26;;;;;;;4.47;1.60;;;5.10;99.90;;;;;;5016990;28;20041;-65
2022/04/10 06:18:51;;;;;;;7.40;1.55;;;5.40;99.90;;;;;;5035744;28;20107;-65
2022/04/10 06:21:17;;;;;;;5.45;1.63;;;5.70;99.90;;;;;;5016654;28;20057;-64
2022/04/10 06:23:43;;;;;;;3.72;1.60;;;5.90;99.90;;;;;;5016729;28;20132;-64
2022/04/10 06:26:08;;;;;;;5.18;1.92;;;6.10;99.90;;;;;;5034466;28;20128;-64
2022/04/10 06:28:34;;;;;;;3.80;1.80;;;6.30;99.90;;;;;;5034564;28;20038;-64
2022/04/10 06:31:00;;;;;;;5.68;1.58;;;6.30;99.90;;;;;;5016402;28;20045;-64
2022/04/10 06:33:26;;;;;;;5.20;1.70;;;6.60;99.90;;;;;;5039157;28;20041;-65
2022/04/10 06:35:53;;;;;;;5.22;1.60;;;6.60;99.90;;;;;;5052627;28;20383;-65
2022/04/10 06:38:19;;;;;;;5.97;2.03;;;6.80;99.90;;;;;;5054647;28;20041;-64
2022/04/10 06:40:47;;;;;;;4.18;2.50;;;7.00;99.90;;;;;;5026906;28;20048;-65
2022/04/10 06:43:12;;;;;;;7.00;1.70;;;7.20;99.90;;;;;;5041866;28;20395;-64
2022/04/10 06:45:38;;;;;;;3.15;1.70;;;7.40;99.90;;;;;;5052679;28;20115;-64
2022/04/10 06:48:06;;;;;;;6.03;1.60;;;7.50;99.90;;;;;;5054995;28;20483;-64
2022/04/10 06:50:32;;;;;;;5.85;1.50;;;7.50;99.90;;;;;;5054575;28;20044;-64
2022/04/10 06:52:57;;;;;;;8.75;1.70;;;7.80;99.90;;;;;;5054299;28;20062;-64
2022/04/10 06:55:23;;;;;;;7.97;1.70;;;7.90;99.90;;;;;;5054383;28;20033;-65
2022/04/10 06:57:48;;;;;;;8.05;1.60;;;8.20;99.90;;;;;;5036749;28;20568;-64
2022/04/10 07:00:14;;;;;;;8.63;1.63;;;8.30;99.90;;;;;;5036269;28;20041;-65
2022/04/10 07:02:40;;;;;;;4.45;1.55;;;8.40;99.90;;;;;;5052984;28;20060;-65
2022/04/10 07:05:06;;;;;;;5.50;1.52;;;8.40;99.90;;;;;;5036031;28;20052;-64
2022/04/10 07:07:31;;;;;;;9.15;2.60;;;8.70;99.90;;;;;;5054374;28;20379;-64
2022/04/10 07:09:59;;;;;;;5.07;1.70;;;8.80;99.90;;;;;;5035996;28;20152;-64
2022/04/10 07:12:25;;;;;;;6.53;2.47;;;8.80;99.90;;;;;;5054057;28;20092;-64
2022/04/10 07:14:50;;;;;;;8.00;1.90;;;8.60;99.90;;;;;;5053968;28;20072;-64
2022/04/10 07:17:16;;;;;;;8.98;1.75;;;8.30;99.90;;;;;;5054230;28;20055;-64
2022/04/10 07:19:41;;;;;;;8.50;2.30;;;7.80;99.90;;;;;;5054063;28;20048;-64
2022/04/10 07:24:51;;;;;;;10.02;2.20;;;7.50;99.90;;;;;;5035734;28;20049;-65
2022/04/10 07:27:17;;;;;;;8.57;2.25;;;;;;;;;;5035887;28;20041;-64
2022/04/10 07:29:43;;;;;;;7.85;1.92;;;7.40;99.90;;;;;;5053704;28;20051;-64
2022/04/10 07:32:08;;;;;;;9.85;2.33;;;7.20;99.90;;;;;;5053932;28;20041;-64
2022/04/10 07:34:34;;;;;;;6.40;2.08;;;7.20;99.90;;;;;;5035417;28;20410;-64
2022/04/10 07:37:00;;;;;;;8.40;2.47;;;7.50;99.90;;;;;;5053583;28;20044;-64
2022/04/10 07:39:25;;;;;;;10.50;1.63;;;7.60;99.90;;;;;;5039079;28;20044;-64
2022/04/10 07:41:51;;;;;;;7.47;1.90;;;7.70;99.90;;;;;;5055919;28;20498;-64
2022/04/10 07:44:16;;;;;;;8.30;2.40;;;8.00;99.90;;;;;;5073702;28;20490;-65
2022/04/10 07:49:26;;;;;;;8.02;2.00;;;8.40;99.90;;;;;;5034954;28;20046;-65
2022/04/10 07:51:51;;;;;;;9.45;2.15;;;8.60;99.90;;;;;;5052188;28;20039;-64
2022/04/10 07:54:18;;;;;;;9.15;2.33;;;8.70;99.90;;;;;;5032693;28;20043;-66
2022/04/10 07:56:44;;;;;;;6.93;2.53;;;;;;;;;;5049138;28;20060;-65
2022/04/10 07:59:10;;;;;;;11.38;2.63;;;8.80;99.90;;;;;;5053512;28;20041;-64
2022/04/10 08:01:36;;;;;;;7.47;1.80;;;9.00;99.90;;;;;;5052393;28;20105;-65
2022/04/10 08:04:02;;;;;;;5.38;2.00;;;9.00;99.90;;;;;;5052689;28;20084;-64
2022/04/10 08:06:28;;;;;;;10.57;2.50;;;9.10;99.90;;;;;;5031279;28;20061;-65
2022/04/10 08:08:53;;;;;;;9.25;2.42;;;9.20;99.90;;;;;;5056053;28;20139;-65
2022/04/10 08:11:19;;;;;;;7.05;1.90;;;9.10;99.90;;;;;;5034432;28;20111;-65
2022/04/10 08:13:44;;;;;;;6.55;1.92;;;9.10;99.90;;;;;;5050496;28;20028;-64
2022/04/10 08:16:10;;;;;;;7.43;2.15;;;8.80;99.90;;;;;;5052584;28;20036;-64
2022/04/10 08:18:35;;;;;;;11.77;2.13;;;8.70;99.90;;;;;;5052178;28;20084;-65
2022/04/10 08:21:01;;;;;;;16.65;3.78;;;8.50;99.90;;;;;;5034984;28;20048;-65
2022/04/10 08:23:27;;;;;;;9.00;2.15;;;8.30;99.90;;;;;;5049701;28;20037;-65
2022/04/10 08:25:52;;;;;;;13.18;2.88;;;8.40;99.90;;;;;;5051344;28;20078;-65
2022/04/10 08:28:18;;;;;;;8.63;2.13;;;8.30;99.90;;;;;;5038107;28;20037;-65
2022/04/10 08:30:44;;;;;;;7.82;2.47;;;;;;;;;;5037993;28;20036;-65
2022/04/10 08:33:10;;;;;;;13.98;2.53;;;8.80;99.90;;;;;;5018528;28;20430;-65
2022/04/10 08:35:36;;;;;;;7.63;2.88;;;;;;;;;;5039661;28;20099;-65
2022/04/10 08:38:01;;;;;;;6.85;2.13;;;9.10;99.90;;;;;;5043045;28;20086;-65
2022/04/10 08:40:28;;;;;;;9.50;2.28;;;9.20;99.90;;;;;;5035135;28;20047;-65
2022/04/10 08:42:54;;;;;;;8.77;2.30;;;9.00;99.90;;;;;;5029222;28;20041;-65
2022/04/10 08:45:24;;;;;;;7.82;1.77;;;8.90;99.90;;;;;;5034973;28;20084;-65
2022/04/10 08:47:50;;;;;;;6.70;2.00;;;8.80;99.90;;;;;;5032584;28;20049;-65
2022/04/10 08:50:17;;;;;;;9.27;2.28;;;8.60;99.90;;;;;;5032762;28;20033;-65
2022/04/10 08:52:44;;;;;;;6.32;2.17;;;8.60;99.90;;;;;;5024642;28;20449;-64
2022/04/10 08:55:10;;;;;;;7.70;1.95;;;8.60;99.90;;;;;;5052623;28;20539;-64
2022/04/10 08:57:36;;;;;;;5.65;1.63;;;8.80;99.90;;;;;;5014803;28;20037;-65
2022/04/10 09:00:03;;;;;;;7.05;1.83;;;9.00;99.90;;;;;;5030614;28;20041;-65
2022/04/10 09:02:29;;;;;;;5.45;1.98;;;9.30;99.90;;;;;;5045385;28;20439;-65
2022/04/10 09:04:55;;;;;;;9.32;2.38;;;9.60;99.90;;;;;;5040143;28;20491;-65
2022/04/10 09:07:20;;;;;;;4.88;1.92;;;9.70;99.90;;;;;;5002245;28;20052;-65
2022/04/10 09:09:55;;;;;;;6.43;1.70;;;9.90;99.90;;;;;;5036593;28;20038;-65
2022/04/10 09:12:21;;;;;;;7.72;1.65;;;9.80;99.90;;;;;;5018685;28;20072;-65
2022/04/10 09:14:47;;;;;;;10.35;2.42;;;9.90;99.90;;;;;;5049490;28;20041;-65
2022/04/10 09:17:22;;;;;;;12.48;2.13;;;10.20;99.90;;;;;;5038302;28;20384;-64
2022/04/10 09:19:50;;;;;;;10.88;1.80;;;10.20;99.90;;;;;;5056168;28;20037;-64
2022/04/10 09:22:27;;;;;;;9.93;2.72;;;10.40;99.90;;;;;;5056162;28;20044;-66
2022/04/10 09:25:12;;;;;;;7.80;2.10;;;10.40;99.90;;;;;;5056373;28;20033;-64
2022/04/10 09:27:40;;;;;;;13.23;2.08;;;10.50;99.90;;;;;;5056220;28;20469;-64
2022/04/10 09:30:09;;;;;;;11.73;1.80;;;10.40;99.90;;;;;;5056229;28;20446;-64
2022/04/10 09:32:39;;;;;;;10.45;1.98;;;10.10;99.90;;;;;;5056162;28;20041;-64
2022/04/10 09:35:05;;;;;;;13.63;2.38;;;10.30;99.90;;;;;;5044564;28;20032;-65
2022/04/10 09:37:42;;;;;;;8.32;2.03;;;10.10;99.90;;;;;;5035019;28;20096;-65
2022/04/10 09:40:31;;;;;;;12.75;2.15;;;10.20;99.90;;;;;;5039553;28;20045;-64
2022/04/10 09:42:56;;;;;;;8.05;1.90;;;10.20;99.90;;;;;;5055621;28;20037;-65
2022/04/10 09:45:34;;;;;;;5.78;1.60;;;10.50;99.90;;;;;;5055528;28;20117;-64
2022/04/10 09:48:23;;;;;;;10.73;1.95;;;10.70;99.90;;;;;;5054982;28;20037;-65
2022/04/10 09:50:52;;;;;;;7.50;2.15;;;10.80;99.90;;;;;;5052128;28;20060;-65
2022/04/10 09:53:18;;;;;;;5.43;1.80;;;10.80;99.90;;;;;;5050790;28;20442;-65
2022/04/10 09:55:44;;;;;;;7.55;2.40;;;10.90;99.90;;;;;;5052805;28;20061;-65
2022/04/10 09:58:13;;;;;;;8.48;1.83;;;10.90;99.90;;;;;;5036901;28;20491;-65
2022/04/10 10:00:46;;;;;;;6.32;1.60;;;11.00;99.90;;;;;;5052380;28;20044;-65
2022/04/10 10:03:14;;;;;;;10.65;1.60;;;11.30;99.90;;;;;;5030453;28;20049;-65
2022/04/10 10:05:40;;;;;;;10.00;1.95;;;11.40;99.90;;;;;;5039777;28;20038;-64
2022/04/10 10:08:07;;;;;;;13.35;1.73;;;11.50;99.90;;;;;;5037555;28;20045;-64
2022/04/10 10:10:37;;;;;;;7.97;1.63;;;11.60;99.90;;;;;;5016107;28;20492;-64
2022/04/10 10:13:05;;;;;;;9.50;1.98;;;11.40;99.90;;;;;;5035560;28;20419;-65
2022/04/10 10:15:32;;;;;;;8.02;2.03;;;11.50;99.90;;;;;;5035373;28;20096;-65
2022/04/10 10:18:01;;;;;;;7.32;1.50;;;11.50;99.90;;;;;;5035630;28;20068;-64
2022/04/10 10:20:28;;;;;;;8.23;1.90;;;11.90;99.90;;;;;;5035479;28;20411;-64
2022/04/10 10:22:55;;;;;;;10.35;1.65;;;11.60;99.90;;;;;;5035204;28;20045;-65
2022/04/10 10:25:29;;;;;;;4.68;1.40;;;11.80;99.90;;;;;;5035104;28;20391;-65
2022/04/10 10:28:23;;;;;;;5.47;1.98;;;12.00;99.90;;;;;;5017433;28;20488;-64
2022/04/10 10:31:20;;;;;;;4.82;1.83;;;12.00;99.90;;;;;;5018152;28;20045;-65
2022/04/10 10:33:57;;;;;;;8.05;1.95;;;11.80;99.90;;;;;;5026039;28;20497;-65
2022/04/10 10:36:26;;;;;;;5.68;1.67;;;11.60;99.90;;;;;;5037095;28;20048;-64
2022/04/10 10:38:53;;;;;;;6.80;1.65;;;11.50;99.90;;;;;;5049578;28;20037;-65
2022/04/10 10:41:18;;;;;;;6.72;2.15;;;11.60;99.90;;;;;;5034845;28;20045;-65
2022/04/10 10:43:47;;;;;;;8.63;1.92;;;11.70;99.90;;;;;;5045869;28;20562;-67
2022/04/10 10:46:33;;;;;;;7.30;2.00;;;11.70;99.90;;;;;;5046266;28;20445;-66
2022/04/10 10:49:11;;;;;;;;;;;11.80;99.90;;;;;;5045926;28;20068;-66
2022/04/10 10:51:36;;;;;;;7.45;2.10;;;11.60;99.90;;;;;;5033144;28;19917;-66
2022/04/10 10:54:08;;;;;;;7.78;1.50;;;11.80;99.90;;;;;;5029114;28;20044;-65
2022/04/10 10:56:37;;;;;;;5.80;1.70;;;11.90;99.90;;;;;;5054066;28;20055;-65
2022/04/10 10:59:24;;;;;;;10.00;1.50;;;11.90;99.90;;;;;;5054451;28;20120;-65
2022/04/10 11:02:14;;;;;;;10.45;1.88;;;11.90;99.90;;;;;;5036196;28;20110;-66
2022/04/10 11:04:50;;;;;;;7.55;1.70;;;11.80;99.90;;;;;;5020560;28;20041;-65
2022/04/10 11:07:19;;;;;;;5.20;1.48;;;11.70;99.90;;;;;;5054140;28;20044;-65
2022/04/10 11:09:54;;;;;;;7.25;1.40;;;11.60;99.90;;;;;;5035835;28;20073;-65
2022/04/10 11:12:23;;;;;;;;;;;11.60;99.90;;;;;;5036795;28;20044;-65
2022/04/10 11:14:51;;;;;;;7.53;1.48;;;11.60;99.90;;;;;;5047371;28;20278;-65
2022/04/10 11:17:17;;;;;;;6.93;1.90;;;11.80;99.90;;;;;;5036138;28;20076;-65
2022/04/10 11:19:56;;;;;;;8.65;1.80;;;11.80;99.90;;;;;;5054009;28;20044;-65
2022/04/10 11:22:25;;;;;;;7.53;2.00;;;11.90;99.90;;;;;;5035838;28;20041;-65
2022/04/10 11:24:57;;;;;;;3.65;1.48;;;11.80;99.90;;;;;;5053773;28;20469;-66
2022/04/10 11:27:45;;;;;;;4.00;1.40;;;11.90;99.90;;;;;;5035973;28;20055;-66
2022/04/10 11:30:19;;;;;;;9.18;2.53;;;11.90;99.90;;;;;;5059922;28;20111;-65
2022/04/10 11:33:02;;;;;;;8.43;2.07;;;12.00;99.90;;;;;;5073763;28;20040;-65
2022/04/10 11:35:30;;;;;;;7.30;1.42;;;11.90;99.90;;;;;;5063290;28;20045;-65
2022/04/10 11:38:01;;;;;;;10.38;1.65;;;11.70;99.90;;;;;;5053384;28;20047;-66
2022/04/10 11:40:31;;;;;;;3.72;1.50;;;11.50;99.90;;;;;;5052658;28;20043;-66
2022/04/10 11:43:00;;;;;;;5.30;1.50;;;11.40;99.90;;;;;;5032359;28;20121;-66
2022/04/10 11:45:27;;;;;;;4.82;1.58;;;11.80;99.90;;;;;;5051849;28;20127;-66
2022/04/10 11:47:53;;;;;;;4.55;1.40;;;11.70;99.90;;;;;;5034938;28;20033;-66
2022/04/10 11:50:24;;;;;;;6.93;1.73;;;11.80;99.90;;;;;;5034963;28;20090;-66
2022/04/10 11:53:12;;;;;;;3.50;1.60;;;11.70;99.90;;;;;;5032409;28;20041;-65
2022/04/10 11:55:40;;;;;;;5.82;2.40;;;11.50;99.90;;;;;;5034863;28;20627;-65
2022/04/10 11:58:21;;;;;;;4.78;1.30;;;11.40;99.90;;;;;;5052304;28;20033;-66
2022/04/10 12:00:55;;;;;;;5.75;1.95;;;11.30;99.90;;;;;;5055781;28;20033;-66
2022/04/10 12:03:26;;;;;;;5.68;1.30;;;11.50;99.90;;;;;;5052198;28;20422;-66
2022/04/10 12:05:53;;;;;;;4.25;1.40;;;11.30;99.90;;;;;;5034684;28;20095;-66
2022/04/10 12:08:21;;;;;;;6.32;1.50;;;11.60;99.90;;;;;;5052153;28;20112;-66
2022/04/10 12:11:00;;;;;;;5.60;1.38;;;11.70;99.90;;;;;;5052581;28;20032;-65
2022/04/10 12:13:30;;;;;;;6.32;1.98;;;11.80;99.90;;;;;;5049872;28;20426;-66
2022/04/10 12:16:18;;;;;;;5.45;1.95;;;11.60;99.90;;;;;;5052386;28;20036;-66
2022/04/10 12:18:51;;;;;;;7.00;2.17;;;11.60;99.90;;;;;;5052701;28;20489;-65
2022/04/10 12:21:17;;;;;;;8.10;1.63;;;11.40;99.90;;;;;;5052384;28;20103;-64
2022/04/10 12:23:43;;;;;;;5.70;1.67;;;11.50;99.90;;;;;;5049689;28;20035;-64
2022/04/10 12:26:09;;;;;;;3.80;1.50;;;11.80;99.90;;;;;;5052290;28;20116;-65
2022/04/10 12:28:37;;;;;;;3.13;1.13;;;11.60;99.90;;;;;;5052251;28;20037;-64
2022/04/10 12:31:03;;;;;;;6.82;1.10;;;11.80;99.90;;;;;;5034541;28;20041;-64
2022/04/10 12:33:30;;;;;;;3.53;1.30;;;11.80;99.90;;;;;;5048846;28;20132;-64
2022/04/10 12:35:56;;;;;;;3.33;1.00;;;12.10;99.90;;;;;;5034405;28;20032;-64
2022/04/10 12:38:26;;;;;;;5.38;1.50;;;12.20;99.90;;;;;;5052218;28;20033;-64
2022/04/10 12:41:02;;;;;;;4.03;1.30;;;12.20;99.90;;;;;;5051698;28;20434;-65
2022/04/10 12:43:31;;;;;;;7.30;1.20;;;12.00;99.90;;;;;;5034459;28;20063;-65
2022/04/10 12:46:09;;;;;;;4.40;1.88;;;12.00;99.90;;;;;;5022189;28;20113;-65
2022/04/10 12:48:34;;;;;;;8.95;1.30;;;11.80;99.90;;;;;;5034527;28;20045;-65
2022/04/10 12:51:10;;;;;;;4.95;1.35;;;11.70;99.90;;;;;;5051997;28;20510;-65
2022/04/10 12:53:36;;;;;;;3.95;1.40;;;12.00;99.90;;;;;;5049250;28;20029;-65
2022/04/10 12:56:02;;;;;;;3.65;1.40;;;11.80;99.90;;;;;;5052001;28;20025;-65
2022/04/10 12:58:31;;;;;;;4.05;1.45;;;11.90;99.90;;;;;;5052232;28;20036;-65
2022/04/10 13:00:57;;;;;;;6.70;1.55;;;12.10;99.90;;;;;;5034383;28;20037;-64
2022/04/10 13:03:24;;;;;;;6.32;1.30;;;11.80;99.90;;;;;;5049165;28;20040;-65
2022/04/10 13:06:07;;;;;;;5.40;1.55;;;11.90;99.90;;;;;;5052564;28;20036;-64